createdAt,value
2019-04-03T00:01:43.974Z,13.07
2019-04-03T00:04:11.321Z,12.95
2019-04-03T00:06:39.684Z,12.91
2019-04-03T00:09:07.143Z,12.93
2019-04-03T00:11:34.799Z,12.83
2019-04-03T00:14:02.262Z,12.80
2019-04-03T00:16:29.473Z,12.75
2019-04-03T00:18:56.899Z,12.67
2019-04-03T00:21:28.715Z,12.59
2019-04-03T00:23:57.122Z,12.51
2019-04-03T00:26:25.837Z,12.30
2019-04-03T00:28:53.209Z,12.09
2019-04-03T00:31:23.291Z,11.91
2019-04-03T00:33:52.931Z,11.78
2019-04-03T00:36:21.618Z,11.65
2019-04-03T00:38:49.626Z,11.56
2019-04-03T00:41:16.829Z,11.48
2019-04-03T00:43:44.244Z,11.46
2019-04-03T00:46:11.460Z,11.48
2019-04-03T00:48:38.974Z,11.54
2019-04-03T00:51:06.748Z,11.49
2019-04-03T00:53:37.071Z,11.44
2019-04-03T00:56:04.324Z,11.38
2019-04-03T00:58:36.652Z,11.33
2019-04-03T01:01:06.678Z,11.32
2019-04-03T01:03:34.161Z,11.37
2019-04-03T01:06:01.436Z,11.36
2019-04-03T01:08:30.295Z,11.34
2019-04-03T01:10:58.745Z,11.33
2019-04-03T01:13:26.736Z,11.35
2019-04-03T01:15:53.796Z,11.40
2019-04-03T01:18:27.218Z,11.45
2019-04-03T01:20:54.359Z,11.52
2019-04-03T01:23:21.582Z,11.61
2019-04-03T01:25:48.742Z,11.68
2019-04-03T01:28:16.039Z,11.77
2019-04-03T01:30:44.233Z,11.88
2019-04-03T01:33:11.721Z,11.99
2019-04-03T01:35:38.863Z,12.03
2019-04-03T01:38:06.426Z,12.07
2019-04-03T01:40:33.707Z,12.12
2019-04-03T01:43:00.924Z,12.17
2019-04-03T01:45:28.115Z,12.17
2019-04-03T01:47:57.347Z,12.16
2019-04-03T01:50:24.263Z,12.27
2019-04-03T01:52:51.419Z,12.23
2019-04-03T01:55:18.678Z,12.22
2019-04-03T01:57:45.962Z,12.20
2019-04-03T02:00:13.427Z,12.21
2019-04-03T02:02:40.697Z,12.25
2019-04-03T02:05:08.083Z,12.24
2019-04-03T02:07:35.232Z,12.27
2019-04-03T02:10:03.362Z,12.33
2019-04-03T02:12:30.771Z,12.34
2019-04-03T02:14:57.944Z,12.36
2019-04-03T02:17:25.408Z,12.37
2019-04-03T02:19:52.718Z,12.39
2019-04-03T02:22:19.910Z,12.38
2019-04-03T02:24:47.108Z,12.39
2019-04-03T02:27:14.521Z,12.36
2019-04-03T02:29:41.641Z,12.28
2019-04-03T02:32:08.810Z,12.19
2019-04-03T02:34:36.703Z,12.15
2019-04-03T02:37:04.096Z,12.09
2019-04-03T02:39:31.656Z,12.11
2019-04-03T02:41:59.157Z,12.15
2019-04-03T02:44:26.317Z,12.20
2019-04-03T02:46:53.379Z,12.19
2019-04-03T02:49:20.960Z,12.15
2019-04-03T02:51:51.790Z,12.13
2019-04-03T02:54:28.035Z,12.09
2019-04-03T02:56:55.702Z,12.16
2019-04-03T02:59:25.149Z,12.21
2019-04-03T03:01:51.955Z,12.20
2019-04-03T03:04:21.479Z,12.13
2019-04-03T03:06:48.626Z,12.09
2019-04-03T03:09:15.920Z,12.07
2019-04-03T03:11:43.213Z,12.07
2019-04-03T03:14:11.094Z,11.99
2019-04-03T03:16:38.450Z,11.93
2019-04-03T03:19:06.359Z,11.83
2019-04-03T03:21:33.679Z,11.84
2019-04-03T03:24:01.080Z,11.78
2019-04-03T03:26:28.653Z,11.73
2019-04-03T03:28:56.074Z,11.69
2019-04-03T03:31:56.881Z,11.56
2019-04-03T03:33:52.977Z,11.47
2019-04-03T03:36:24.820Z,11.43
2019-04-03T03:38:50.146Z,11.55
2019-04-03T03:41:22.056Z,11.64
2019-04-03T03:43:48.361Z,11.65
2019-04-03T03:46:15.649Z,11.74
2019-04-03T03:48:45.043Z,11.74
2019-04-03T03:51:14.209Z,11.72
2019-04-03T03:53:44.505Z,11.73
2019-04-03T03:56:10.976Z,11.74
2019-04-03T03:58:38.245Z,11.80
2019-04-03T04:01:05.665Z,11.81
2019-04-03T04:03:32.836Z,11.89
2019-04-03T04:06:00.050Z,11.86
2019-04-03T04:08:27.498Z,11.88
2019-04-03T04:10:58.017Z,11.98
2019-04-03T04:13:23.753Z,12.03
2019-04-03T04:15:50.930Z,12.05
2019-04-03T04:18:18.103Z,11.97
2019-04-03T04:20:45.713Z,11.96
2019-04-03T04:23:13.161Z,11.79
2019-04-03T04:25:43.418Z,11.75
2019-04-03T04:28:09.937Z,11.71
2019-04-03T04:30:37.354Z,11.69
2019-04-03T04:33:04.741Z,11.71
2019-04-03T04:35:31.837Z,11.73
2019-04-03T04:37:59.015Z,11.69
2019-04-03T04:40:26.468Z,11.65
2019-04-03T04:42:53.977Z,11.62
2019-04-03T04:45:21.478Z,11.58
2019-04-03T04:47:48.526Z,11.68
2019-04-03T04:50:20.423Z,11.82
2019-04-03T04:52:47.769Z,11.78
2019-04-03T04:55:14.867Z,11.78
2019-04-03T04:57:42.303Z,11.76
2019-04-03T05:00:09.723Z,11.73
2019-04-03T05:02:36.879Z,11.67
2019-04-03T05:05:04.660Z,11.62
2019-04-03T05:07:32.104Z,11.63
2019-04-03T05:09:59.580Z,11.71
2019-04-03T05:12:26.764Z,11.79
2019-04-03T05:14:53.889Z,11.64
2019-04-03T05:17:21.048Z,11.59
2019-04-03T05:19:49.026Z,11.53
2019-04-03T05:22:16.716Z,11.49
2019-04-03T05:24:44.036Z,11.45
2019-04-03T05:27:11.256Z,11.44
2019-04-03T05:29:38.744Z,11.45
2019-04-03T05:32:05.985Z,11.52
2019-04-03T05:34:33.168Z,11.66
2019-04-03T05:37:00.667Z,11.73
2019-04-03T05:39:27.879Z,11.77
2019-04-03T05:41:54.946Z,11.76
2019-04-03T05:44:23.793Z,11.71
2019-04-03T05:46:51.179Z,11.73
2019-04-03T05:49:19.343Z,11.85
2019-04-03T05:51:47.033Z,11.90
2019-04-03T05:54:14.779Z,11.94
2019-04-03T05:56:42.896Z,11.98
2019-04-03T05:59:10.524Z,12.05
2019-04-03T06:01:37.788Z,12.15
2019-04-03T06:04:05.197Z,12.19
2019-04-03T06:06:32.430Z,12.23
2019-04-03T06:08:59.949Z,12.34
2019-04-03T06:11:27.099Z,12.45
2019-04-03T06:13:54.367Z,12.59
2019-04-03T06:16:23.401Z,12.79
2019-04-03T06:18:50.848Z,12.91
2019-04-03T06:21:18.016Z,12.97
2019-04-03T06:23:45.213Z,13.03
2019-04-03T06:26:12.366Z,13.16
2019-04-03T06:28:42.340Z,13.19
2019-04-03T06:31:08.892Z,13.31
2019-04-03T06:33:36.674Z,13.24
2019-04-03T06:36:04.006Z,13.13
2019-04-03T06:38:31.121Z,13.20
2019-04-03T06:40:58.567Z,13.47
2019-04-03T06:43:25.670Z,13.67
2019-04-03T06:45:52.880Z,13.73
2019-04-03T06:48:20.062Z,13.79
2019-04-03T06:50:47.157Z,13.94
2019-04-03T06:53:14.355Z,14.08
2019-04-03T06:55:41.542Z,14.22
2019-04-03T06:58:10.961Z,14.49
2019-04-03T07:00:38.126Z,14.78
2019-04-03T07:03:05.366Z,14.94
2019-04-03T07:05:32.475Z,15.14
2019-04-03T07:08:00.835Z,15.17
2019-04-03T07:10:28.427Z,15.31
2019-04-03T07:12:56.054Z,15.44
2019-04-03T07:15:24.512Z,15.64
2019-04-03T07:17:52.414Z,15.68
2019-04-03T07:20:20.799Z,15.55
2019-04-03T07:22:48.454Z,15.43
2019-04-03T07:25:15.687Z,15.22
2019-04-03T07:27:42.865Z,15.04
2019-04-03T07:30:10.684Z,14.86
2019-04-03T07:32:37.940Z,14.83
2019-04-03T07:35:09.350Z,14.83
2019-04-03T07:37:35.112Z,14.73
2019-04-03T07:40:03.312Z,14.73
2019-04-03T07:42:30.688Z,14.53
2019-04-03T07:44:57.973Z,14.36
2019-04-03T07:47:25.187Z,14.18
2019-04-03T07:49:52.647Z,14.12
2019-04-03T07:52:20.414Z,14.01
2019-04-03T07:54:47.662Z,14.13
2019-04-03T07:57:16.418Z,14.35
2019-04-03T07:59:44.006Z,14.58
2019-04-03T08:02:12.583Z,14.90
2019-04-03T08:04:40.343Z,15.05
2019-04-03T08:07:07.668Z,15.00
2019-04-03T08:09:34.888Z,15.02
2019-04-03T08:12:04.157Z,14.95
2019-04-03T08:14:31.089Z,15.04
2019-04-03T08:16:58.519Z,15.23
2019-04-03T08:19:25.882Z,15.40
2019-04-03T08:21:53.029Z,15.57
2019-04-03T08:24:20.241Z,15.84
2019-04-03T08:26:48.958Z,16.11
2019-04-03T08:29:16.565Z,16.26
2019-04-03T08:31:47.796Z,16.23
2019-04-03T08:34:17.075Z,16.21
2019-04-03T08:36:41.948Z,16.10
2019-04-03T08:39:09.156Z,16.03
2019-04-03T08:41:37.777Z,16.00
2019-04-03T08:44:08.255Z,15.88
2019-04-03T08:46:34.766Z,15.64
2019-04-03T08:49:01.862Z,15.49
2019-04-03T08:51:29.495Z,15.38
2019-04-03T08:53:56.676Z,15.21
2019-04-03T08:56:23.924Z,14.99
2019-04-03T08:58:51.100Z,14.80
2019-04-03T09:01:18.462Z,14.73
2019-04-03T09:03:46.422Z,14.64
2019-04-03T09:06:13.667Z,14.62
2019-04-03T09:08:40.808Z,14.60
2019-04-03T09:11:08.252Z,14.43
2019-04-03T09:13:35.703Z,14.30
2019-04-03T09:16:03.353Z,14.15
2019-04-03T09:18:30.963Z,14.19
2019-04-03T09:20:58.058Z,14.10
2019-04-03T09:23:25.537Z,13.86
2019-04-03T09:25:52.722Z,13.59
2019-04-03T09:28:19.881Z,13.44
2019-04-03T09:30:48.305Z,13.35
2019-04-03T09:33:15.723Z,13.05
2019-04-03T09:35:43.388Z,12.79
2019-04-03T09:38:10.974Z,12.58
2019-04-03T09:40:38.330Z,12.55
2019-04-03T09:43:05.749Z,12.67
2019-04-03T09:45:33.382Z,12.76
2019-04-03T09:48:00.867Z,13.02
2019-04-03T09:50:28.055Z,13.46
2019-04-03T09:52:55.554Z,13.75
2019-04-03T09:55:22.823Z,13.94
2019-04-03T09:57:52.345Z,14.01
2019-04-03T10:00:19.363Z,13.82
2019-04-03T10:02:46.546Z,13.36
2019-04-03T10:05:15.128Z,12.93
2019-04-03T10:07:42.750Z,12.59
2019-04-03T10:10:10.410Z,12.35
2019-04-03T10:12:38.012Z,12.37
2019-04-03T10:15:05.476Z,12.30
2019-04-03T10:17:32.826Z,12.26
2019-04-03T10:20:00.050Z,12.24
2019-04-03T10:22:27.439Z,12.33
2019-04-03T10:24:54.656Z,12.54
2019-04-03T10:27:21.862Z,12.63
2019-04-03T10:29:50.262Z,12.61
2019-04-03T10:32:18.147Z,12.59
2019-04-03T10:34:45.349Z,12.57
2019-04-03T10:37:14.765Z,12.61
2019-04-03T10:39:44.282Z,12.63
2019-04-03T10:42:11.300Z,12.87
2019-04-03T10:44:38.957Z,13.13
2019-04-03T10:47:06.172Z,13.46
2019-04-03T10:49:33.311Z,13.36
2019-04-03T10:52:00.503Z,13.09
2019-04-03T10:54:28.250Z,12.87
2019-04-03T10:56:55.483Z,12.93
2019-04-03T10:59:22.580Z,13.25
2019-04-03T11:01:50.040Z,13.83
2019-04-03T11:04:17.049Z,14.97
2019-04-03T11:06:44.408Z,16.27
2019-04-03T11:09:12.269Z,17.28
2019-04-03T11:11:42.529Z,17.49
2019-04-03T11:14:08.686Z,17.83
2019-04-03T11:16:38.494Z,18.01
2019-04-03T11:19:07.004Z,17.85
2019-04-03T11:21:34.341Z,17.84
2019-04-03T11:24:01.887Z,17.94
2019-04-03T11:26:29.143Z,18.05
2019-04-03T11:28:56.611Z,17.93
2019-04-03T11:31:26.987Z,17.63
2019-04-03T11:33:52.909Z,17.42
2019-04-03T11:36:20.055Z,17.30
2019-04-03T11:38:47.701Z,17.28
2019-04-03T11:41:18.279Z,17.38
2019-04-03T11:43:44.222Z,17.54
2019-04-03T11:46:11.668Z,17.82
2019-04-03T11:48:39.011Z,17.99
2019-04-03T11:51:06.471Z,18.00
2019-04-03T11:53:35.533Z,17.98
2019-04-03T11:56:03.250Z,17.74
2019-04-03T11:58:30.947Z,17.41
2019-04-03T12:00:58.569Z,17.27
2019-04-03T12:03:25.778Z,17.27
2019-04-03T12:05:53.155Z,17.03
2019-04-03T12:08:20.991Z,16.82
2019-04-03T12:10:48.253Z,16.23
2019-04-03T12:13:15.494Z,15.88
2019-04-03T12:15:42.742Z,15.77
2019-04-03T12:18:09.964Z,16.00
2019-04-03T12:20:41.260Z,17.04
2019-04-03T12:23:06.215Z,17.70
2019-04-03T12:25:34.720Z,18.04
2019-04-03T12:28:03.141Z,18.32
2019-04-03T12:30:30.811Z,18.89
2019-04-03T12:32:57.967Z,18.93
2019-04-03T12:35:25.164Z,18.62
2019-04-03T12:37:52.345Z,18.20
2019-04-03T12:40:19.756Z,17.97
2019-04-03T12:42:46.937Z,17.60
2019-04-03T12:45:17.183Z,17.15
2019-04-03T12:47:44.643Z,16.92
2019-04-03T12:50:14.557Z,16.54
2019-04-03T12:52:44.407Z,16.18
2019-04-03T12:55:11.094Z,16.14
2019-04-03T12:57:39.796Z,16.12
2019-04-03T13:00:10.857Z,15.84
2019-04-03T13:02:38.002Z,15.51
2019-04-03T13:05:07.264Z,15.14
2019-04-03T13:07:36.797Z,14.84
2019-04-03T13:10:07.014Z,14.96
2019-04-03T13:12:34.563Z,15.15
2019-04-03T13:15:04.296Z,15.00
2019-04-03T13:17:31.162Z,14.85
2019-04-03T13:20:03.205Z,14.78
2019-04-03T13:22:27.789Z,14.75
2019-04-03T13:24:55.264Z,14.59
2019-04-03T13:27:22.554Z,14.36
2019-04-03T13:29:50.199Z,14.25
2019-04-03T13:32:17.968Z,14.35
2019-04-03T13:34:46.037Z,14.44
2019-04-03T13:37:13.793Z,14.66
2019-04-03T13:39:41.179Z,15.04
2019-04-03T13:42:08.475Z,15.27
2019-04-03T13:44:35.954Z,15.54
2019-04-03T13:47:03.293Z,15.87
2019-04-03T13:49:31.308Z,16.09
2019-04-03T13:52:02.782Z,16.28
2019-04-03T13:54:29.305Z,16.55
2019-04-03T13:56:56.635Z,16.72
2019-04-03T13:59:25.848Z,16.79
2019-04-03T14:01:54.553Z,16.72
2019-04-03T14:04:22.919Z,16.45
2019-04-03T14:06:50.573Z,16.29
2019-04-03T14:09:17.936Z,16.11
2019-04-03T14:11:45.405Z,15.87
2019-04-03T14:14:15.647Z,15.52
2019-04-03T14:16:42.386Z,15.37
2019-04-03T14:19:11.587Z,15.10
2019-04-03T14:21:39.527Z,14.89
2019-04-03T14:24:08.292Z,14.84
2019-04-03T14:26:37.584Z,14.79
2019-04-03T14:29:07.063Z,14.69
2019-04-03T14:31:37.505Z,14.65
2019-04-03T14:34:03.485Z,14.72
2019-04-03T14:36:31.110Z,14.76
2019-04-03T14:38:58.466Z,14.71
2019-04-03T14:41:26.366Z,14.66
2019-04-03T14:43:54.205Z,14.60
2019-04-03T14:46:21.879Z,14.57
2019-04-03T14:48:50.514Z,14.61
2019-04-03T14:51:19.274Z,14.78
2019-04-03T14:53:47.250Z,14.94
2019-04-03T14:56:18.904Z,14.99
2019-04-03T14:58:46.315Z,15.00
2019-04-03T15:01:13.562Z,14.86
2019-04-03T15:03:41.285Z,14.60
2019-04-03T15:06:09.164Z,14.23
2019-04-03T15:08:37.016Z,13.99
2019-04-03T15:11:04.596Z,13.73
2019-04-03T15:13:32.335Z,13.58
2019-04-03T15:16:03.425Z,13.36
2019-04-03T15:18:34.996Z,13.18
2019-04-03T15:21:03.282Z,12.96
2019-04-03T15:23:31.190Z,12.82
2019-04-03T15:26:00.054Z,12.70
2019-04-03T15:28:30.427Z,12.59
2019-04-03T15:31:17.011Z,12.43
2019-04-03T15:33:44.601Z,12.31
2019-04-03T15:36:12.297Z,12.12
2019-04-03T15:38:39.562Z,11.99
2019-04-03T15:41:06.900Z,11.80
2019-04-03T15:43:34.025Z,11.68
2019-04-03T15:46:01.790Z,11.49
2019-04-03T15:48:29.131Z,11.33
2019-04-03T15:50:56.575Z,11.20
2019-04-03T15:53:25.021Z,11.05
2019-04-03T15:55:52.338Z,10.87
2019-04-03T15:58:19.675Z,10.75
2019-04-03T16:00:47.486Z,10.64
2019-04-03T16:03:16.364Z,10.59
2019-04-03T16:05:43.799Z,10.51
2019-04-03T16:08:12.440Z,10.46
2019-04-03T16:10:40.678Z,10.36
2019-04-03T16:13:07.899Z,10.29
2019-04-03T16:15:35.773Z,10.29
2019-04-03T16:18:06.256Z,10.25
2019-04-03T16:20:32.258Z,10.14
2019-04-03T16:22:59.544Z,10.03
2019-04-03T16:25:26.690Z,9.94
2019-04-03T16:27:53.787Z,9.84
2019-04-03T16:30:21.785Z,9.86
2019-04-03T16:32:49.605Z,9.74
2019-04-03T16:35:17.498Z,9.63
2019-04-03T16:37:45.237Z,9.55
2019-04-03T16:40:12.990Z,9.51
2019-04-03T16:42:40.307Z,9.48
2019-04-03T16:45:14.391Z,9.44
2019-04-03T16:47:44.092Z,9.34
2019-04-03T16:50:11.816Z,9.22
2019-04-03T16:52:39.007Z,9.32
2019-04-03T16:55:06.754Z,9.21
2019-04-03T16:57:34.624Z,9.16
2019-04-03T17:00:02.449Z,8.98
2019-04-03T17:02:30.030Z,8.88
2019-04-03T17:04:57.847Z,8.87
2019-04-03T17:07:25.339Z,8.70
2019-04-03T17:09:52.457Z,8.73
2019-04-03T17:12:19.845Z,8.71
2019-04-03T17:14:47.123Z,8.62
2019-04-03T17:17:15.068Z,8.51
2019-04-03T17:19:42.783Z,8.45
2019-04-03T17:22:10.017Z,8.40
2019-04-03T17:24:42.769Z,8.41
2019-04-03T17:27:06.992Z,8.37
2019-04-03T17:29:34.521Z,8.46
2019-04-03T17:32:02.188Z,8.55
2019-04-03T17:34:29.513Z,8.39
2019-04-03T17:36:56.820Z,8.24
2019-04-03T17:39:24.120Z,8.31
2019-04-03T17:41:51.317Z,8.34
2019-04-03T17:44:18.851Z,8.22
2019-04-03T17:46:48.701Z,8.12
2019-04-03T17:49:15.199Z,8.05
2019-04-03T17:51:42.460Z,8.01
2019-04-03T17:54:09.981Z,7.97
2019-04-03T17:56:37.117Z,7.94
2019-04-03T17:59:04.318Z,7.90
2019-04-03T18:01:31.437Z,7.87
2019-04-03T18:03:58.684Z,7.87
2019-04-03T18:06:27.363Z,7.89
2019-04-03T18:08:55.346Z,7.90
2019-04-03T18:11:22.604Z,7.94
2019-04-03T18:13:49.929Z,7.91
2019-04-03T18:16:17.059Z,7.89
2019-04-03T18:18:44.315Z,7.85
2019-04-03T18:21:13.042Z,7.82
2019-04-03T18:23:40.395Z,7.85
2019-04-03T18:26:07.631Z,7.82
2019-04-03T18:28:35.772Z,7.76
2019-04-03T18:31:04.234Z,7.76
2019-04-03T18:33:31.737Z,7.75
2019-04-03T18:35:58.900Z,7.72
2019-04-03T18:38:26.021Z,7.68
2019-04-03T18:40:53.319Z,7.61
2019-04-03T18:43:21.892Z,7.68
2019-04-03T18:45:49.600Z,7.70
2019-04-03T18:48:17.072Z,7.65
2019-04-03T18:50:44.583Z,7.62
2019-04-03T18:53:11.831Z,7.64
2019-04-03T18:55:39.080Z,7.64
2019-04-03T18:58:06.289Z,7.71
2019-04-03T19:00:34.397Z,7.66
2019-04-03T19:03:01.633Z,7.72
2019-04-03T19:05:29.767Z,7.66
2019-04-03T19:07:57.031Z,7.62
2019-04-03T19:10:24.266Z,7.61
2019-04-03T19:12:51.455Z,7.67
2019-04-03T19:15:19.022Z,7.71
2019-04-03T19:17:46.099Z,7.79
2019-04-03T19:20:13.553Z,7.92
2019-04-03T19:22:40.788Z,8.01
2019-04-03T19:25:08.275Z,7.94
2019-04-03T19:27:35.496Z,7.87
2019-04-03T19:30:02.968Z,7.83
2019-04-03T19:32:30.225Z,7.88
2019-04-03T19:34:57.476Z,7.96
2019-04-03T19:37:24.699Z,7.98
2019-04-03T19:39:52.153Z,8.02
2019-04-03T19:42:19.436Z,7.97
2019-04-03T19:44:47.196Z,7.96
2019-04-03T19:47:15.709Z,8.03
2019-04-03T19:49:43.066Z,8.05
2019-04-03T19:52:10.271Z,8.03
2019-04-03T19:54:37.772Z,8.08
2019-04-03T19:57:05.027Z,8.14
2019-04-03T19:59:34.629Z,8.04
2019-04-03T20:02:01.629Z,8.01
2019-04-03T20:04:28.870Z,8.01
2019-04-03T20:06:56.097Z,7.98
2019-04-03T20:09:23.351Z,8.01
2019-04-03T20:11:53.182Z,8.00
2019-04-03T20:14:19.632Z,8.01
2019-04-03T20:16:46.835Z,8.02
2019-04-03T20:19:14.081Z,8.05
2019-04-03T20:21:41.349Z,8.29
2019-04-03T20:24:08.909Z,8.17
2019-04-03T20:26:36.121Z,8.12
2019-04-03T20:29:03.658Z,8.21
2019-04-03T20:31:30.827Z,8.25
2019-04-03T20:33:58.007Z,8.15
2019-04-03T20:36:25.242Z,8.18
2019-04-03T20:38:52.461Z,8.06
2019-04-03T20:41:19.710Z,7.95
2019-04-03T20:43:47.323Z,8.01
2019-04-03T20:46:14.533Z,7.95
2019-04-03T20:48:41.981Z,7.83
2019-04-03T20:51:10.466Z,7.75
2019-04-03T20:53:37.853Z,7.74
2019-04-03T20:56:05.067Z,7.68
2019-04-03T20:58:32.435Z,7.67
2019-04-03T21:01:06.824Z,7.72
2019-04-03T21:03:29.400Z,7.75
2019-04-03T21:05:56.805Z,7.85
2019-04-03T21:08:26.383Z,7.76
2019-04-03T21:10:53.622Z,7.65
2019-04-03T21:13:21.105Z,7.60
2019-04-03T21:15:48.200Z,7.55
2019-04-03T21:18:15.734Z,7.49
2019-04-03T21:20:43.160Z,7.45
2019-04-03T21:23:10.337Z,7.43
2019-04-03T21:25:37.556Z,7.43
2019-04-03T21:28:04.717Z,7.43
2019-04-03T21:30:32.084Z,7.49
2019-04-03T21:32:59.906Z,7.68
2019-04-03T21:35:27.571Z,7.64
2019-04-03T21:37:54.801Z,7.60
2019-04-03T21:40:22.068Z,7.59
2019-04-03T21:42:49.247Z,7.57
2019-04-03T21:45:16.437Z,7.56
2019-04-03T21:47:43.545Z,7.73
2019-04-03T21:50:12.081Z,7.76
2019-04-03T21:52:39.579Z,7.70
2019-04-03T21:55:07.260Z,7.61
2019-04-03T21:57:37.536Z,7.57
2019-04-03T22:00:06.037Z,7.56
2019-04-03T22:02:33.293Z,7.53
2019-04-03T22:05:00.462Z,7.50
2019-04-03T22:07:28.572Z,7.45
2019-04-03T22:09:56.514Z,7.50
2019-04-03T22:12:23.624Z,7.52
2019-04-03T22:14:50.795Z,7.47
2019-04-03T22:17:17.903Z,7.54
2019-04-03T22:19:45.397Z,7.52
2019-04-03T22:22:12.847Z,7.49
2019-04-03T22:24:40.151Z,7.46
2019-04-03T22:27:07.638Z,7.42
2019-04-03T22:29:35.135Z,7.46
2019-04-03T22:32:02.319Z,7.49
2019-04-03T22:34:30.012Z,7.53
2019-04-03T22:36:57.666Z,7.47
2019-04-03T22:39:25.199Z,7.42
2019-04-03T22:41:52.353Z,7.44
2019-04-03T22:44:19.560Z,7.54
2019-04-03T22:46:46.745Z,7.51
2019-04-03T22:49:14.237Z,7.48
2019-04-03T22:51:41.711Z,7.38
2019-04-03T22:54:10.859Z,7.32
2019-04-03T22:56:38.389Z,7.28
2019-04-03T22:59:05.471Z,7.38
2019-04-03T23:01:32.679Z,7.49
2019-04-03T23:03:59.846Z,7.39
2019-04-03T23:06:27.053Z,7.29
2019-04-03T23:08:54.412Z,7.33
2019-04-03T23:11:21.736Z,7.43
2019-04-03T23:13:48.957Z,7.38
2019-04-03T23:16:16.159Z,7.30
2019-04-03T23:18:44.943Z,7.25
2019-04-03T23:21:12.467Z,7.20
2019-04-03T23:23:39.793Z,7.17
2019-04-03T23:26:07.321Z,7.18
2019-04-03T23:28:34.681Z,7.17
2019-04-03T23:31:01.920Z,7.22
2019-04-03T23:33:29.451Z,7.23
2019-04-03T23:35:56.549Z,7.21
2019-04-03T23:38:24.793Z,7.27
2019-04-03T23:40:53.027Z,7.24
2019-04-03T23:43:20.251Z,7.27
2019-04-03T23:45:47.452Z,7.29
2019-04-03T23:48:17.484Z,7.29
2019-04-03T23:50:43.674Z,7.25
2019-04-03T23:53:10.941Z,7.21
2019-04-03T23:55:38.143Z,7.19
2019-04-03T23:58:05.406Z,7.21
